Time;durP1;ratioP1;P1;durP2;ratioP2;P2;SDS_P1;SDS_P2;PMS_P1;PMS_P2;Temp;Humidity;BMP_temperature;BMP_pressure;BME280_temperature;BME280_humidity;BME280_pressure;Samples;Min_cycle;Max_cycle;Signal;HPM_P1;HPM_P2
2023/01/04 00:00:52;;;;;;;3.20;0.98;;;10.90;53.90;;;;;;5044629;28;20496;-49
2023/01/04 00:03:20;;;;;;;4.30;1.10;;;10.90;53.90;;;;;;5041377;28;20056;-46
2023/01/04 00:05:47;;;;;;;5.03;1.05;;;10.90;54.00;;;;;;5043258;28;20057;-47
2023/01/04 00:08:14;;;;;;;5.03;1.15;;;10.90;54.00;;;;;;5043335;28;20053;-45
2023/01/04 00:10:41;;;;;;;3.60;1.20;;;10.90;54.10;;;;;;5039702;28;20049;-48
2023/01/04 00:13:08;;;;;;;8.13;1.30;;;10.90;54.20;;;;;;5041892;28;20519;-48
2023/01/04 00:15:37;;;;;;;4.30;1.60;;;10.90;54.20;;;;;;5043153;28;20049;-47
2023/01/04 00:18:04;;;;;;;5.82;1.05;;;10.90;54.20;;;;;;5041884;28;20092;-50
2023/01/04 00:20:32;;;;;;;6.03;1.00;;;10.90;54.80;;;;;;5043077;28;20049;-45
2023/01/04 00:22:59;;;;;;;3.95;1.10;;;10.90;54.30;;;;;;5043328;28;20432;-43
2023/01/04 00:25:26;;;;;;;5.05;1.10;;;10.90;54.40;;;;;;5042273;28;20056;-51
2023/01/04 00:27:53;;;;;;;6.93;1.52;;;10.90;54.40;;;;;;5039890;28;20391;-49
2023/01/04 00:30:21;;;;;;;3.83;0.95;;;11.00;54.50;;;;;;5040628;28;20049;-46
2023/01/04 00:32:49;;;;;;;2.38;0.95;;;11.00;54.50;;;;;;5041114;28;20552;-45
2023/01/04 00:35:17;;;;;;;4.60;1.02;;;11.00;54.50;;;;;;5043017;28;20053;-48
2023/01/04 00:37:44;;;;;;;4.90;1.55;;;11.00;54.60;;;;;;5041251;28;20049;-50
2023/01/04 00:40:12;;;;;;;5.65;1.20;;;11.00;54.60;;;;;;5042928;28;20056;-48
2023/01/04 00:42:39;;;;;;;3.17;1.00;;;11.10;54.60;;;;;;5042095;28;20064;-46
2023/01/04 00:45:07;;;;;;;4.78;1.27;;;11.10;54.60;;;;;;5039342;28;20061;-46
2023/01/04 00:47:34;;;;;;;6.03;1.17;;;11.10;55.10;;;;;;5039869;28;20053;-47
2023/01/04 00:50:03;;;;;;;2.67;1.15;;;11.10;54.60;;;;;;5043209;28;20057;-48
2023/01/04 00:52:30;;;;;;;6.38;1.20;;;11.20;54.70;;;;;;5042867;28;20056;-50
2023/01/04 00:54:58;;;;;;;6.07;1.10;;;11.20;54.70;;;;;;5039432;28;20063;-49
2023/01/04 00:57:25;;;;;;;4.60;1.17;;;11.20;54.80;;;;;;5041319;28;20064;-46
2023/01/04 00:59:52;;;;;;;10.82;2.03;;;11.20;54.80;;;;;;5042486;28;20409;-46
2023/01/04 01:02:19;;;;;;;3.97;1.25;;;11.20;54.80;;;;;;5042935;28;20045;-48
2023/01/04 01:04:47;;;;;;;6.40;1.17;;;11.20;54.80;;;;;;5041609;28;20053;-49
2023/01/04 01:07:15;;;;;;;6.53;1.58;;;11.30;54.80;;;;;;5043926;28;20056;-48
2023/01/04 01:09:42;;;;;;;5.07;1.33;;;11.30;54.80;;;;;;5040019;28;20511;-47
2023/01/04 01:12:10;;;;;;;4.53;1.30;;;11.30;54.80;;;;;;5042437;28;20049;-47
2023/01/04 01:14:37;;;;;;;6.05;1.25;;;11.40;54.90;;;;;;5040601;28;20509;-47
2023/01/04 01:17:04;;;;;;;7.25;1.45;;;11.40;55.00;;;;;;5041639;28;20056;-45
2023/01/04 01:19:31;;;;;;;3.65;1.30;;;11.40;55.00;;;;;;5040833;28;20053;-49
2023/01/04 01:21:59;;;;;;;4.95;1.40;;;11.40;55.00;;;;;;5043278;28;20051;-48
2023/01/04 01:24:28;;;;;;;4.38;1.13;;;11.40;55.10;;;;;;5036194;28;20409;-46
2023/01/04 01:26:55;;;;;;;7.47;1.20;;;11.40;55.20;;;;;;5040537;28;20366;-46
2023/01/04 01:29:22;;;;;;;12.20;1.70;;;11.40;55.20;;;;;;5042367;28;20497;-45
2023/01/04 01:31:49;;;;;;;6.43;1.40;;;11.40;55.30;;;;;;5042595;28;20460;-47
2023/01/04 01:34:17;;;;;;;3.40;1.30;;;11.50;55.50;;;;;;5039800;28;20059;-48
2023/01/04 01:36:44;;;;;;;6.63;1.40;;;11.50;55.60;;;;;;5043354;28;20496;-48
2023/01/04 01:39:11;;;;;;;3.50;1.33;;;11.50;55.60;;;;;;5040191;28;20469;-43
2023/01/04 01:41:40;;;;;;;4.30;1.48;;;11.50;55.70;;;;;;5041624;28;20055;-49
2023/01/04 01:44:45;;;;;;;7.05;1.25;;;11.50;55.90;;;;;;5037165;28;20076;-49
2023/01/04 01:47:15;;;;;;;5.82;1.42;;;11.60;56.10;;;;;;5039343;28;20056;-47
2023/01/04 01:49:44;;;;;;;7.15;1.65;;;11.60;56.00;;;;;;5038749;28;20061;-46
2023/01/04 01:52:15;;;;;;;12.25;1.77;;;11.60;56.20;;;;;;5042421;28;20053;-46
2023/01/04 01:54:47;;;;;;;6.78;1.20;;;11.60;56.40;;;;;;5033659;28;20041;-47
2023/01/04 01:57:19;;;;;;;6.63;1.52;;;11.60;56.60;;;;;;5037515;28;20492;-48
2023/01/04 01:59:50;;;;;;;2.92;1.35;;;11.60;56.70;;;;;;5041581;28;20060;-47
2023/01/04 02:02:17;;;;;;;6.60;1.20;;;11.60;56.80;;;;;;5039884;28;20049;-47
2023/01/04 02:04:48;;;;;;;5.18;1.65;;;11.60;56.80;;;;;;5036961;28;20063;-45
2023/01/04 02:07:19;;;;;;;6.18;1.20;;;11.60;57.00;;;;;;5039493;28;20053;-45
2023/01/04 02:09:49;;;;;;;6.43;1.40;;;11.60;57.10;;;;;;5040822;28;20045;-46
2023/01/04 02:12:17;;;;;;;6.80;1.42;;;11.60;57.10;;;;;;5039764;28;20386;-49
2023/01/04 02:14:48;;;;;;;7.32;1.50;;;11.60;57.20;;;;;;5041563;28;20412;-47
2023/01/04 02:17:20;;;;;;;5.07;1.52;;;11.60;57.30;;;;;;5038462;28;20049;-49
2023/01/04 02:20:03;;;;;;;8.77;1.67;;;11.60;57.30;;;;;;5040034;28;20057;-46
2023/01/04 02:23:10;;;;;;;9.57;1.75;;;11.60;57.50;;;;;;5037205;28;20393;-44
2023/01/04 02:26:01;;;;;;;10.30;1.83;;;11.60;57.80;;;;;;5039737;28;20059;-47
2023/01/04 02:28:46;;;;;;;10.70;2.67;;;11.60;57.80;;;;;;5040853;28;20485;-46
2023/01/04 02:31:26;;;;;;;3.47;1.50;;;11.60;57.90;;;;;;5040105;28;20056;-44
2023/01/04 02:34:00;;;;;;;8.98;1.88;;;11.60;57.80;;;;;;5036331;28;20048;-45
2023/01/04 02:36:33;;;;;;;;;;;11.60;57.90;;;;;;5041664;28;20501;-48
2023/01/04 02:39:13;;;;;;;7.82;1.60;;;11.60;57.80;;;;;;5032682;28;20276;-46
2023/01/04 02:41:46;;;;;;;5.13;1.60;;;11.60;57.90;;;;;;5040947;28;20394;-48
2023/01/04 02:47:05;;;;;;;4.88;1.67;;;11.60;57.90;;;;;;5043738;28;20413;-46
2023/01/04 02:52:19;;;;;;;7.15;1.58;;;11.60;58.00;;;;;;5045945;28;20055;-45
2023/01/04 02:54:47;;;;;;;7.18;1.73;;;11.60;58.10;;;;;;5039409;28;20048;-47
2023/01/04 02:57:30;;;;;;;6.07;1.58;;;11.60;58.10;;;;;;5040285;28;20056;-47
2023/01/04 03:00:16;;;;;;;6.65;1.38;;;11.60;58.20;;;;;;5039653;28;20052;-46
2023/01/04 03:08:43;;;;;;;7.60;1.40;;;11.60;58.20;;;;;;5046657;28;20570;-41
2023/01/04 03:13:55;;;;;;;4.47;1.17;;;11.60;58.20;;;;;;5040491;28;20080;-45
2023/01/04 03:16:24;;;;;;;4.60;1.20;;;11.60;58.30;;;;;;5041141;28;20500;-47
2023/01/04 03:18:57;;;;;;;3.47;1.15;;;11.70;58.30;;;;;;5035634;28;20076;-42
2023/01/04 03:21:26;;;;;;;5.13;1.27;;;11.60;58.30;;;;;;5039216;28;20060;-44
2023/01/04 03:35:22;;;;;;;4.18;1.00;;;11.70;58.40;;;;;;5043710;28;20428;-45
2023/01/04 03:43:08;;;;;;;4.65;1.23;;;11.70;58.50;;;;;;5040624;28;20424;-48
2023/01/04 03:49:23;;;;;;;3.42;1.10;;;11.70;58.60;;;;;;5045511;28;20064;-47
2023/01/04 03:51:55;;;;;;;2.28;0.77;;;11.70;58.80;;;;;;5037460;28;20060;-48
2023/01/04 03:54:28;;;;;;;3.72;0.93;;;11.70;58.70;;;;;;5038544;28;20385;-49
2023/01/04 03:56:56;;;;;;;5.18;1.10;;;11.70;58.70;;;;;;5040738;28;20056;-47
2023/01/04 03:59:24;;;;;;;3.85;0.90;;;11.80;58.70;;;;;;5034451;28;20055;-49
2023/01/04 04:01:51;;;;;;;4.88;1.00;;;11.80;58.70;;;;;;5037754;28;20057;-44
2023/01/04 04:09:50;;;;;;;2.40;0.65;;;11.80;59.20;;;;;;5044536;28;20511;-49
2023/01/04 04:12:17;;;;;;;3.10;0.90;;;11.80;58.70;;;;;;5036678;28;20049;-47
2023/01/04 04:14:44;;;;;;;3.10;0.68;;;11.90;58.80;;;;;;5041705;28;20072;-45
2023/01/04 04:17:12;;;;;;;2.83;0.60;;;11.90;58.80;;;;;;5043704;28;20056;-50
2023/01/04 04:19:39;;;;;;;2.08;0.73;;;11.90;58.70;;;;;;5041670;28;20420;-44
2023/01/04 04:22:07;;;;;;;1.65;0.60;;;11.90;58.70;;;;;;5036916;28;20060;-50
2023/01/04 04:24:35;;;;;;;1.67;0.68;;;12.00;58.70;;;;;;5041335;28;20053;-45
2023/01/04 04:27:02;;;;;;;1.33;0.43;;;12.00;58.70;;;;;;5041856;28;20064;-47
2023/01/04 04:29:29;;;;;;;3.70;0.52;;;12.00;58.60;;;;;;5042496;28;20052;-45
2023/01/04 04:31:56;;;;;;;3.97;0.70;;;12.00;58.60;;;;;;5042253;28;20386;-46
2023/01/04 04:34:24;;;;;;;3.60;0.63;;;12.00;58.60;;;;;;5038683;28;20060;-47
2023/01/04 04:36:51;;;;;;;1.67;0.32;;;12.00;58.60;;;;;;5045115;28;20389;-46
2023/01/04 04:39:19;;;;;;;2.35;0.40;;;12.00;58.60;;;;;;5043117;28;20049;-45
2023/01/04 04:41:46;;;;;;;0.52;0.25;;;12.10;58.70;;;;;;5043543;28;20060;-45
2023/01/04 04:44:15;;;;;;;0.82;0.50;;;12.00;58.60;;;;;;5043586;28;20053;-48
2023/01/04 04:46:43;;;;;;;1.95;0.35;;;12.10;58.70;;;;;;5041802;28;20053;-46
2023/01/04 04:49:12;;;;;;;2.20;0.50;;;12.10;58.70;;;;;;5039655;28;20075;-47
2023/01/04 04:51:40;;;;;;;1.15;0.22;;;12.10;58.80;;;;;;5042605;28;20057;-44
2023/01/04 04:54:09;;;;;;;1.65;0.40;;;12.10;58.70;;;;;;5038731;28;20059;-46
2023/01/04 04:56:38;;;;;;;5.03;0.88;;;12.10;58.80;;;;;;5041707;28;20053;-45
2023/01/04 04:59:06;;;;;;;2.65;0.40;;;12.10;58.80;;;;;;5039991;28;20053;-47
2023/01/04 05:01:33;;;;;;;1.00;0.30;;;12.10;58.80;;;;;;5040500;28;20060;-46
2023/01/04 05:04:01;;;;;;;2.65;0.40;;;12.10;58.70;;;;;;5039809;28;20048;-51
2023/01/04 05:06:28;;;;;;;1.05;0.30;;;12.10;58.80;;;;;;5040346;28;20071;-45
2023/01/04 05:08:55;;;;;;;3.72;0.50;;;12.10;58.80;;;;;;5039285;28;20061;-49
2023/01/04 05:14:05;;;;;;;0.57;0.32;;;12.10;58.70;;;;;;5042998;28;20486;-48
2023/01/04 05:16:32;;;;;;;1.02;0.32;;;12.20;58.70;;;;;;5040937;28;20052;-46
2023/01/04 05:19:00;;;;;;;1.85;0.28;;;12.20;58.70;;;;;;5041638;28;20057;-47
2023/01/04 05:21:27;;;;;;;0.20;0.20;;;12.20;58.70;;;;;;5040976;28;20056;-45
2023/01/04 05:23:54;;;;;;;2.83;0.30;;;12.20;58.60;;;;;;5040102;28;20393;-46
2023/01/04 05:26:21;;;;;;;0.70;0.32;;;12.20;58.60;;;;;;5041885;28;20060;-48
2023/01/04 05:28:49;;;;;;;0.73;0.30;;;12.20;58.60;;;;;;5041745;28;20505;-46
2023/01/04 05:31:16;;;;;;;1.13;0.20;;;12.20;58.60;;;;;;5042454;28;20053;-47
2023/01/04 05:33:43;;;;;;;1.33;0.40;;;12.20;58.50;;;;;;5042105;28;20056;-45
2023/01/04 05:36:11;;;;;;;0.43;0.22;;;12.20;58.50;;;;;;5040149;28;20416;-47
2023/01/04 05:38:38;;;;;;;1.75;0.20;;;12.20;59.00;;;;;;5039147;28;20127;-46
2023/01/04 05:42:23;;;;;;;0.60;0.22;;;12.20;58.40;;;;;;5034541;28;20057;-47
2023/01/04 05:43:53;;;;;;;0.60;0.28;;;12.20;58.40;;;;;;5040844;28;20057;-46
2023/01/04 05:46:22;;;;;;;1.60;0.20;;;12.20;58.30;;;;;;5040633;28;20536;-48
2023/01/04 05:48:49;;;;;;;0.63;0.20;;;12.30;58.30;;;;;;5041677;28;20056;-49
2023/01/04 05:51:16;;;;;;;0.80;0.22;;;12.30;58.30;;;;;;5041759;28;20052;-45
2023/01/04 05:53:43;;;;;;;0.68;0.20;;;12.30;58.20;;;;;;5040220;28;20685;-47
2023/01/04 05:56:11;;;;;;;0.40;0.17;;;12.30;58.20;;;;;;5039955;28;20061;-44
2023/01/04 05:58:38;;;;;;;5.97;0.20;;;12.30;58.10;;;;;;5041513;28;20543;-48
2023/01/04 06:01:06;;;;;;;0.20;0.10;;;12.30;58.10;;;;;;5039588;28;20067;-44
2023/01/04 06:03:35;;;;;;;0.13;0.10;;;12.30;58.00;;;;;;5040808;28;20049;-44
2023/01/04 06:06:02;;;;;;;0.65;0.20;;;12.30;58.00;;;;;;5037819;28;20053;-50
2023/01/04 06:08:29;;;;;;;0.90;0.30;;;12.40;58.00;;;;;;5039377;28;20079;-47
2023/01/04 06:10:56;;;;;;;0.85;0.30;;;12.40;58.00;;;;;;5040992;28;20061;-44
2023/01/04 06:13:24;;;;;;;0.70;0.20;;;12.40;58.00;;;;;;5041226;28;20079;-46
2023/01/04 06:15:51;;;;;;;0.57;0.20;;;12.40;57.90;;;;;;5041853;28;20057;-48
2023/01/04 06:18:18;;;;;;;0.38;0.20;;;12.40;57.90;;;;;;5040681;28;20520;-45
2023/01/04 06:20:47;;;;;;;0.63;0.10;;;12.40;57.90;;;;;;5040545;28;20041;-48
2023/01/04 06:23:14;;;;;;;1.17;0.20;;;12.40;57.90;;;;;;5038063;28;20053;-47
2023/01/04 06:25:42;;;;;;;0.20;0.10;;;12.40;57.90;;;;;;5039589;28;20064;-44
2023/01/04 06:28:09;;;;;;;1.00;0.28;;;12.50;57.90;;;;;;5041662;28;20519;-47
2023/01/04 06:30:37;;;;;;;2.13;0.40;;;12.50;57.90;;;;;;5040858;28;20045;-44
2023/01/04 06:33:04;;;;;;;0.20;0.15;;;12.50;57.80;;;;;;5039416;28;20056;-46
2023/01/04 06:35:31;;;;;;;0.35;0.10;;;12.50;57.80;;;;;;5038139;28;20420;-48
2023/01/04 06:38:00;;;;;;;0.70;0.08;;;12.50;57.80;;;;;;5041966;28;20045;-44
2023/01/04 06:40:27;;;;;;;29.85;10.93;;;12.60;57.70;;;;;;5037643;28;20056;-48
2023/01/04 06:42:54;;;;;;;4.53;2.38;;;12.60;57.70;;;;;;5036590;28;20049;-47
2023/01/04 06:45:21;;;;;;;2.53;1.08;;;12.60;57.70;;;;;;5040306;28;20076;-45
2023/01/04 06:47:49;;;;;;;0.60;0.30;;;12.60;57.60;;;;;;5041224;28;20053;-43
2023/01/04 06:50:16;;;;;;;1.85;0.20;;;12.60;57.60;;;;;;5042077;28;20057;-45
2023/01/04 06:52:43;;;;;;;0.47;0.10;;;12.60;57.60;;;;;;5041452;28;20492;-44
2023/01/04 06:55:12;;;;;;;0.50;0.10;;;12.60;57.50;;;;;;5039474;28;20061;-47
2023/01/04 06:57:39;;;;;;;1.08;0.20;;;12.60;57.50;;;;;;5040387;28;20049;-47
2023/01/04 07:00:08;;;;;;;0.65;0.20;;;12.60;57.50;;;;;;5037757;28;20049;-46
2023/01/04 07:02:35;;;;;;;0.15;0.08;;;12.60;57.50;;;;;;5036875;28;20049;-45
2023/01/04 07:05:03;;;;;;;0.10;0.10;;;12.70;57.50;;;;;;5039270;28;20057;-47
2023/01/04 07:07:32;;;;;;;0.73;0.13;;;12.60;57.50;;;;;;5039822;28;20056;-44
2023/01/04 07:09:59;;;;;;;0.35;0.20;;;12.70;57.50;;;;;;5036148;28;20079;-46
2023/01/04 07:12:28;;;;;;;0.10;0.10;;;12.70;57.50;;;;;;5039391;28;20056;-45
2023/01/04 07:14:55;;;;;;;1.25;0.30;;;12.70;57.50;;;;;;5038769;28;20489;-45
2023/01/04 07:17:23;;;;;;;0.93;0.25;;;12.70;57.40;;;;;;5041518;28;20053;-41
2023/01/04 07:19:50;;;;;;;0.10;0.10;;;12.70;57.40;;;;;;5039443;28;20049;-43
2023/01/04 07:22:17;;;;;;;3.65;1.55;;;12.70;57.40;;;;;;5029952;28;20072;-46
2023/01/04 07:24:44;;;;;;;3.72;3.00;;;12.70;57.40;;;;;;5033111;28;20496;-42
2023/01/04 07:27:12;;;;;;;3.08;2.60;;;12.70;57.40;;;;;;5039099;28;20063;-48
2023/01/04 07:29:42;;;;;;;1.40;1.30;;;12.70;57.40;;;;;;5040775;28;20053;-41
2023/01/04 07:32:10;;;;;;;0.75;0.55;;;12.70;57.50;;;;;;5040018;28;20049;-42
2023/01/04 07:34:38;;;;;;;0.50;0.50;;;12.70;57.50;;;;;;5035308;28;20077;-46
2023/01/04 07:37:08;;;;;;;0.30;0.30;;;12.70;57.50;;;;;;5038347;28;20049;-47
2023/01/04 07:39:35;;;;;;;1.15;0.40;;;12.70;57.50;;;;;;5038950;28;20067;-45
2023/01/04 07:42:02;;;;;;;0.40;0.40;;;12.80;57.60;;;;;;5040105;28;20057;-46
2023/01/04 07:44:29;;;;;;;0.90;0.20;;;12.80;57.60;;;;;;5038556;28;20049;-44
2023/01/04 07:46:58;;;;;;;0.38;0.28;;;12.80;57.60;;;;;;5038581;28;20048;-44
2023/01/04 07:49:25;;;;;;;0.68;0.20;;;12.80;57.60;;;;;;5040968;28;20509;-45
2023/01/04 07:51:52;;;;;;;0.63;0.13;;;12.80;57.50;;;;;;5042662;28;20466;-44
2023/01/04 07:54:20;;;;;;;0.22;0.20;;;12.80;57.50;;;;;;5041599;28;20440;-42
2023/01/04 07:56:48;;;;;;;0.77;0.40;;;12.80;57.50;;;;;;5041187;28;20493;-45
2023/01/04 07:59:17;;;;;;;0.60;0.50;;;12.80;57.50;;;;;;5041740;28;20052;-47
2023/01/04 08:01:45;;;;;;;0.60;0.30;;;12.80;57.50;;;;;;5042280;28;20057;-45
2023/01/04 08:04:14;;;;;;;1.65;0.20;;;12.80;57.50;;;;;;5042472;28;20056;-47
2023/01/04 08:06:45;;;;;;;0.13;0.00;;;12.80;57.50;;;;;;5038511;28;20080;-53
2023/01/04 08:09:12;;;;;;;0.50;0.20;;;12.80;57.50;;;;;;5041229;28;20060;-43
2023/01/04 08:11:40;;;;;;;0.20;0.20;;;12.90;57.50;;;;;;5042228;28;20424;-42
2023/01/04 08:14:07;;;;;;;0.00;0.00;;;12.90;57.60;;;;;;5043633;28;20083;-48
2023/01/04 08:16:36;;;;;;;0.28;0.10;;;12.90;57.60;;;;;;5040231;28;20408;-44
2023/01/04 08:19:05;;;;;;;0.30;0.10;;;12.90;57.50;;;;;;5041166;28;21252;-45
2023/01/04 08:21:35;;;;;;;1.40;0.20;;;12.90;57.50;;;;;;5040535;28;20060;-46
2023/01/04 08:24:04;;;;;;;0.82;0.20;;;12.90;57.50;;;;;;5033285;28;20329;-47
2023/01/04 08:26:32;;;;;;;0.10;0.10;;;12.90;57.50;;;;;;5039679;28;20103;-43
2023/01/04 08:28:59;;;;;;;0.00;0.00;;;13.00;57.50;;;;;;5043433;28;20123;-44
2023/01/04 08:31:29;;;;;;;0.38;0.20;;;13.00;57.50;;;;;;5043525;28;20049;-42
2023/01/04 08:33:57;;;;;;;0.30;0.13;;;13.00;57.50;;;;;;5042128;28;20086;-46
2023/01/04 08:36:26;;;;;;;0.10;0.10;;;13.00;57.40;;;;;;5038930;28;20053;-44
2023/01/04 08:38:56;;;;;;;0.75;0.20;;;13.00;57.40;;;;;;5036425;28;20504;-48
2023/01/04 08:41:23;;;;;;;1.33;0.60;;;13.10;57.50;;;;;;5042061;28;20414;-49
2023/01/04 08:43:51;;;;;;;4.80;2.28;;;13.10;57.50;;;;;;5038844;28;20056;-43
2023/01/04 09:07:32;;;;;;;0.73;0.32;;;13.20;57.40;;;;;;5117503;27;20070;-44
2023/01/04 09:10:00;;;;;;;0.50;0.50;;;13.20;57.40;;;;;;5026402;28;20420;-41
2023/01/04 09:12:27;;;;;;;1.65;0.40;;;13.20;57.40;;;;;;5042063;28;20428;-47
2023/01/04 09:14:54;;;;;;;0.68;0.20;;;13.20;57.40;;;;;;5040549;28;20060;-44
2023/01/04 09:17:21;;;;;;;0.50;0.40;;;13.20;57.50;;;;;;5038040;28;20053;-44
2023/01/04 09:19:49;;;;;;;1.02;0.40;;;13.20;57.50;;;;;;5025223;28;20481;-46
2023/01/04 09:22:16;;;;;;;0.40;0.30;;;13.20;57.50;;;;;;5030337;28;20053;-45
2023/01/04 09:24:44;;;;;;;0.60;0.50;;;13.30;57.50;;;;;;5031750;28;20049;-45
2023/01/04 09:27:12;;;;;;;0.88;0.40;;;13.30;57.50;;;;;;5025194;28;20607;-45
2023/01/04 09:29:40;;;;;;;3.95;0.60;;;13.40;57.50;;;;;;5031332;28;20049;-47
2023/01/04 09:32:07;;;;;;;3.90;0.60;;;13.30;57.50;;;;;;5032124;28;20049;-50
2023/01/04 09:34:34;;;;;;;0.85;0.47;;;13.40;57.40;;;;;;5026003;28;20056;-46
2023/01/04 09:37:01;;;;;;;1.05;0.63;;;13.40;57.40;;;;;;5030810;28;20053;-43
2023/01/04 09:39:29;;;;;;;0.50;0.30;;;13.40;57.40;;;;;;5034794;28;20053;-44
2023/01/04 09:42:00;;;;;;;0.40;0.40;;;13.40;57.40;;;;;;5031739;28;20797;-48
2023/01/04 09:44:36;;;;;;;0.80;0.50;;;13.50;57.40;;;;;;5034601;28;20052;-46
2023/01/04 09:47:08;;;;;;;0.60;0.28;;;13.50;57.40;;;;;;5038870;28;20488;-50
2023/01/04 09:49:43;;;;;;;1.10;0.60;;;13.50;57.30;;;;;;5038732;28;20060;-44
2023/01/04 09:52:15;;;;;;;2.05;0.50;;;13.50;57.40;;;;;;5038761;28;20045;-46
2023/01/04 09:54:46;;;;;;;0.80;0.40;;;13.50;57.40;;;;;;5039854;28;20056;-48
2023/01/04 09:57:22;;;;;;;2.83;0.40;;;13.50;57.40;;;;;;5026273;28;20049;-47
2023/01/04 09:59:54;;;;;;;1.58;0.30;;;13.60;57.50;;;;;;5025664;28;20057;-48
2023/01/04 10:02:29;;;;;;;0.45;0.20;;;13.60;57.50;;;;;;5033910;28;20405;-47
2023/01/04 10:04:59;;;;;;;0.57;0.20;;;13.60;57.40;;;;;;5037238;28;20572;-43
2023/01/04 10:07:28;;;;;;;1.02;0.15;;;13.60;57.40;;;;;;5035725;28;20053;-46
2023/01/04 10:09:56;;;;;;;1.05;0.40;;;13.70;57.50;;;;;;5024602;28;20062;-48
2023/01/04 10:12:38;;;;;;;0.38;0.15;;;13.70;57.40;;;;;;5025933;28;20054;-46
2023/01/04 10:15:18;;;;;;;1.35;0.32;;;13.70;57.30;;;;;;5021943;28;20060;-56
2023/01/04 10:18:01;;;;;;;0.28;0.15;;;13.70;57.20;;;;;;5023957;28;20053;-48
2023/01/04 10:20:53;;;;;;;0.35;0.20;;;13.70;57.20;;;;;;5029248;28;20045;-45
2023/01/04 10:23:32;;;;;;;5.40;0.60;;;13.70;57.20;;;;;;5022733;28;20076;-45
2023/01/04 10:26:06;;;;;;;0.40;0.30;;;13.80;57.30;;;;;;5021910;28;20075;-46
2023/01/04 10:28:52;;;;;;;0.43;0.17;;;13.80;57.30;;;;;;5030904;28;20053;-48
2023/01/04 10:31:25;;;;;;;5.18;0.22;;;13.80;57.30;;;;;;5028148;28;20413;-44
2023/01/04 10:33:58;;;;;;;0.20;0.10;;;13.80;57.30;;;;;;5030269;28;20061;-44
2023/01/04 10:36:31;;;;;;;0.63;0.25;;;13.80;57.30;;;;;;5040547;28;20519;-48
2023/01/04 10:39:01;;;;;;;0.65;0.30;;;13.80;57.20;;;;;;5026445;28;20065;-44
2023/01/04 10:41:37;;;;;;;0.88;0.22;;;13.90;57.20;;;;;;5033623;28;20049;-47
2023/01/04 10:44:16;;;;;;;1.60;0.30;;;13.90;57.30;;;;;;5034612;28;20053;-48
2023/01/04 10:46:49;;;;;;;2.40;0.40;;;14.00;57.30;;;;;;5031199;28;20497;-45
2023/01/04 10:49:20;;;;;;;0.82;0.30;;;14.00;57.30;;;;;;5030768;28;20052;-47
2023/01/04 10:51:55;;;;;;;0.60;0.40;;;14.00;57.20;;;;;;5028630;28;20044;-45
2023/01/04 10:54:31;;;;;;;1.45;0.30;;;14.00;57.30;;;;;;5023224;28;20057;-48
2023/01/04 10:57:04;;;;;;;1.38;0.47;;;14.00;57.20;;;;;;5034841;28;20517;-48
2023/01/04 10:59:40;;;;;;;0.50;0.33;;;14.00;57.20;;;;;;5034559;28;20431;-47
2023/01/04 11:02:18;;;;;;;1.35;0.90;;;14.00;57.10;;;;;;5004354;28;20483;-46
2023/01/04 11:04:54;;;;;;;2.17;0.40;;;14.10;57.10;;;;;;5036497;28;20053;-46
2023/01/04 11:07:27;;;;;;;0.70;0.57;;;14.10;57.00;;;;;;5027402;28;20053;-45
2023/01/04 11:09:59;;;;;;;1.30;0.57;;;14.10;57.00;;;;;;5037489;28;20057;-48
2023/01/04 11:12:27;;;;;;;1.25;0.50;;;14.10;57.00;;;;;;5041977;28;20460;-51
2023/01/04 11:14:55;;;;;;;1.38;0.65;;;14.20;57.00;;;;;;5042251;28;20056;-52
2023/01/04 11:17:24;;;;;;;1.10;0.70;;;14.10;56.90;;;;;;5041729;28;20056;-47
2023/01/04 11:19:53;;;;;;;0.40;0.28;;;14.10;56.90;;;;;;5039925;28;20408;-45
2023/01/04 11:22:25;;;;;;;1.58;1.02;;;14.20;56.90;;;;;;5044031;28;20052;-49
2023/01/04 11:24:57;;;;;;;2.15;1.58;;;14.20;56.90;;;;;;5045388;28;20610;-47
2023/01/04 11:27:29;;;;;;;3.85;1.73;;;14.20;56.90;;;;;;5048161;28;20416;-45
2023/01/04 11:30:03;;;;;;;1.75;0.75;;;14.20;56.90;;;;;;5048121;28;20417;-46
2023/01/04 11:32:38;;;;;;;1.45;1.25;;;14.20;56.80;;;;;;5044049;28;20515;-48
2023/01/04 11:35:06;;;;;;;2.35;1.77;;;14.20;56.80;;;;;;5045773;28;20052;-51
2023/01/04 11:37:36;;;;;;;2.08;1.10;;;14.30;56.80;;;;;;5047622;28;20053;-48
2023/01/04 11:40:23;;;;;;;0.77;0.60;;;14.30;56.90;;;;;;5044669;28;20282;-50
2023/01/04 11:42:53;;;;;;;1.48;0.70;;;14.30;57.10;;;;;;5045172;28;20060;-50
2023/01/04 11:45:24;;;;;;;1.98;1.00;;;14.30;57.10;;;;;;5046288;28;20049;-50
2023/01/04 11:47:55;;;;;;;1.92;0.50;;;14.20;57.60;;;;;;5044955;28;20049;-50
2023/01/04 11:50:36;;;;;;;1.02;0.30;;;14.20;57.20;;;;;;5039795;28;20670;-48
2023/01/04 11:53:21;;;;;;;2.53;0.40;;;14.30;57.30;;;;;;5041626;28;20057;-49
2023/01/04 11:55:48;;;;;;;0.88;0.40;;;14.20;57.30;;;;;;5043950;28;20044;-51
2023/01/04 11:58:17;;;;;;;0.93;0.30;;;14.20;57.30;;;;;;5046236;28;20055;-48
2023/01/04 12:00:52;;;;;;;0.73;0.20;;;14.20;57.40;;;;;;5049334;28;20060;-50
2023/01/04 12:03:25;;;;;;;1.08;0.32;;;14.30;57.50;;;;;;5046317;28;20418;-47
2023/01/04 12:05:52;;;;;;;0.30;0.13;;;14.20;57.40;;;;;;5048821;28;20473;-47
2023/01/04 12:08:28;;;;;;;1.17;0.30;;;14.30;57.40;;;;;;5049548;28;20057;-42
2023/01/04 12:10:56;;;;;;;0.75;0.40;;;14.20;57.50;;;;;;5051348;28;20057;-42
2023/01/04 12:13:23;;;;;;;0.60;0.30;;;14.30;57.50;;;;;;5053202;28;20481;-43
2023/01/04 12:16:03;;;;;;;0.40;0.40;;;14.30;57.50;;;;;;5033509;28;20492;-44
2023/01/04 12:18:35;;;;;;;0.45;0.30;;;14.20;57.40;;;;;;5042032;28;20057;-50
2023/01/04 12:21:03;;;;;;;0.68;0.57;;;14.30;57.40;;;;;;5047941;28;20543;-51
2023/01/04 12:23:32;;;;;;;1.23;0.70;;;14.20;57.40;;;;;;5046257;28;20056;-43
2023/01/04 12:26:01;;;;;;;0.82;0.43;;;14.20;57.40;;;;;;5042491;28;20045;-49
2023/01/04 12:28:33;;;;;;;0.70;0.30;;;14.20;57.40;;;;;;5054977;28;20496;-46
2023/01/04 12:31:31;;;;;;;0.28;0.17;;;14.20;57.40;;;;;;5038023;28;20061;-51
2023/01/04 12:34:19;;;;;;;0.20;0.13;;;14.20;57.40;;;;;;5033511;28;20056;-47
2023/01/04 12:36:59;;;;;;;2.58;0.30;;;14.20;57.40;;;;;;5042936;28;20053;-46
2023/01/04 12:39:37;;;;;;;0.85;0.20;;;14.20;57.40;;;;;;5045580;28;20056;-49
2023/01/04 12:42:22;;;;;;;0.82;0.13;;;14.20;57.40;;;;;;5026149;28;20053;-49
2023/01/04 12:45:17;;;;;;;0.10;0.10;;;14.20;57.50;;;;;;5045030;28;20049;-47
2023/01/04 12:50:52;;;;;;;0.15;0.13;;;14.20;57.50;;;;;;5061625;28;20067;-51
2023/01/04 12:53:51;;;;;;;0.30;0.10;;;14.30;57.50;;;;;;5045526;28;20064;-49
2023/01/04 12:56:18;;;;;;;0.30;0.30;;;14.30;57.50;;;;;;5042403;28;20053;-47
2023/01/04 12:59:08;;;;;;;0.35;0.30;;;14.30;57.70;;;;;;5042666;28;20056;-51
2023/01/04 13:01:36;;;;;;;6.80;0.98;;;14.30;57.80;;;;;;5043406;28;20080;-47
2023/01/04 13:04:30;;;;;;;2.33;0.28;;;14.30;58.00;;;;;;5055511;28;20063;-50
2023/01/04 13:07:07;;;;;;;0.20;0.20;;;14.30;58.10;;;;;;5049838;28;20522;-50
2023/01/04 13:09:34;;;;;;;0.20;0.20;;;14.30;57.90;;;;;;5043153;28;20409;-46
2023/01/04 13:12:20;;;;;;;0.30;0.30;;;14.30;58.00;;;;;;5036653;28;20056;-44
2023/01/04 13:14:51;;;;;;;1.33;0.30;;;14.30;58.00;;;;;;5045529;28;20056;-45
2023/01/04 13:17:20;;;;;;;0.10;0.10;;;14.30;58.00;;;;;;5044829;28;20511;-50
2023/01/04 13:19:49;;;;;;;0.40;0.38;;;14.30;58.00;;;;;;5045626;28;20076;-52
2023/01/04 13:22:20;;;;;;;0.73;0.40;;;14.30;58.00;;;;;;5043542;28;20065;-49
2023/01/04 13:24:50;;;;;;;0.40;0.40;;;14.30;58.00;;;;;;5038726;28;20052;-54
2023/01/04 13:27:19;;;;;;;0.20;0.17;;;14.30;58.00;;;;;;5037302;28;20053;-46
2023/01/04 13:29:48;;;;;;;0.73;0.30;;;14.30;57.90;;;;;;5042733;28;20057;-45
2023/01/04 13:32:22;;;;;;;0.80;0.80;;;14.30;58.00;;;;;;5041120;28;20053;-47
2023/01/04 13:34:54;;;;;;;0.38;0.30;;;14.30;57.90;;;;;;5042769;28;20057;-48
2023/01/04 13:37:30;;;;;;;0.30;0.30;;;14.30;58.40;;;;;;5051174;28;20041;-48
2023/01/04 13:40:22;;;;;;;0.20;0.20;;;14.30;57.90;;;;;;5038717;28;20405;-50
2023/01/04 13:42:56;;;;;;;0.43;0.30;;;14.30;58.00;;;;;;5042900;28;20516;-48
2023/01/04 13:45:59;;;;;;;0.25;0.25;;;14.30;57.90;;;;;;5043528;28;20107;-48
2023/01/04 13:48:30;;;;;;;0.35;0.13;;;14.30;57.90;;;;;;5041970;28;21038;-42
2023/01/04 13:51:04;;;;;;;0.75;0.28;;;14.40;57.90;;;;;;5038072;28;20114;-45
2023/01/04 13:53:33;;;;;;;0.10;0.10;;;14.40;57.90;;;;;;5050691;28;20048;-48
2023/01/04 13:56:02;;;;;;;0.20;0.20;;;14.40;58.00;;;;;;5042818;28;20053;-46
2023/01/04 13:58:30;;;;;;;0.30;0.30;;;14.40;57.90;;;;;;5040480;28;20508;-49
2023/01/04 14:01:04;;;;;;;0.20;0.10;;;14.40;57.80;;;;;;5048021;28;20058;-50
2023/01/04 14:03:36;;;;;;;0.40;0.40;;;14.40;57.90;;;;;;5039087;28;20091;-46
2023/01/04 14:06:21;;;;;;;0.20;0.10;;;14.40;57.90;;;;;;5048058;28;20052;-50
2023/01/04 14:08:53;;;;;;;0.05;0.05;;;14.40;57.90;;;;;;5043245;28;20418;-50
2023/01/04 14:14:35;;;;;;;0.43;0.20;;;14.40;57.90;;;;;;5046431;28;20063;-46
2023/01/04 14:17:15;;;;;;;1.85;0.05;;;14.50;57.90;;;;;;5041127;28;20067;-47